If you wish to contribute or participate in the discussions about articles you are invited to join SKYbrary as a registered user

 Actions

Vestmannaeyjar Airport

From SKYbrary Wiki

BIVM
Airport
ICAO: BIVM – IATA: VEY
Summary
Name Vestmannaeyjar Airport
Region Northern Atlantic
Territory Iceland IS.gif
Location , Suourland
Serving Vestmannaeyjar
Elevation 99.365 m <br />326 ft <br />326 ft99.365 m <br />
Type medium airport
Coordinates 63° 25' 27.49" N, 20° 16' 43.95" W
Runways
Designator Length Width Surface ROPS
4/22 1160 m3,805.774 ft <br /> 45 m147.638 ft <br /> BIT /
13/31 1205 m3,953.412 ft <br /> 45 m147.638 ft <br /> BIT /


METAR
Observation BIVM 250900Z VRB02KT 9999 -DZ BKN030 05/M00 Q0999
Station Vestmannaeyjar
Date/Time 25 February 2021 09:00:00
Wind direction °
Wind speed 02 kts
Lowest cloud amount broken clouds
Temperature 5°C
Dew point
Humidity 70%
QNH 999 hPa
Weather condition light drizzle